Time;durP1;ratioP1;P1;durP2;ratioP2;P2;SDS_P1;SDS_P2;PMS_P1;PMS_P2;Temp;Humidity;BMP_temperature;BMP_pressure;BME280_temperature;BME280_humidity;BME280_pressure;Samples;Min_cycle;Max_cycle;Signal;HPM_P1;HPM_P2
2023/10/24 00:00:03;;;;;;;16.98;8.70;;;;;;;;;;5092508;28;20028;-74
2023/10/24 00:02:29;;;;;;;13.77;7.65;;;;;;;;;;5093265;28;20031;-73
2023/10/24 00:04:55;;;;;;;19.58;8.80;;;;;;;;;;5092421;28;20020;-73
2023/10/24 00:07:22;;;;;;;17.38;8.73;;;;;;;;;;5092513;28;20051;-73
2023/10/24 00:09:48;;;;;;;14.55;7.97;;;;;;;;;;5091579;28;20025;-72
2023/10/24 00:12:14;;;;;;;19.20;8.68;;;;;;;;;;5091789;28;20033;-73
2023/10/24 00:14:40;;;;;;;16.10;8.35;;;;;;;;;;5092094;28;20420;-73
2023/10/24 00:17:06;;;;;;;16.45;8.70;;;;;;;;;;5091959;28;20028;-73
2023/10/24 00:19:32;;;;;;;18.65;8.82;;;;;;;;;;5091951;28;20065;-73
2023/10/24 00:21:58;;;;;;;15.88;8.68;;;;;;;;;;5091695;28;20024;-72
2023/10/24 00:24:25;;;;;;;16.48;8.45;;;;;;;;;;5091844;28;20028;-73
2023/10/24 00:26:51;;;;;;;15.90;8.25;;;;;;;;;;5093696;28;20077;-73
2023/10/24 00:29:17;;;;;;;17.80;8.45;;;;;;;;;;5091723;28;20032;-73
2023/10/24 00:31:43;;;;;;;16.92;8.68;;;;;;;;;;5091574;28;20035;-73
2023/10/24 00:34:12;;;;;;;17.85;8.48;;;;;;;;;;5092189;28;20073;-73
2023/10/24 00:36:39;;;;;;;16.17;8.18;;;;;;;;;;5091705;28;20548;-73
2023/10/24 00:39:05;;;;;;;19.75;11.13;;;;;;;;;;5091918;28;20039;-74
2023/10/24 00:41:31;;;;;;;25.13;14.82;;;;;;;;;;5091781;28;20020;-72
2023/10/24 00:43:57;;;;;;;22.55;13.27;;;;;;;;;;5091995;28;20032;-72
2023/10/24 00:46:24;;;;;;;22.83;11.85;;;;;;;;;;5091908;28;20114;-74
2023/10/24 00:48:50;;;;;;;16.35;9.70;;;;;;;;;;5091737;28;20031;-74
2023/10/24 00:51:16;;;;;;;21.55;10.55;;;;;;;;;;5091411;28;20027;-74
2023/10/24 00:53:43;;;;;;;15.75;8.90;;;;;;;;;;5091642;28;20028;-74
2023/10/24 00:56:10;;;;;;;17.98;8.45;;;;;;;;;;5091860;28;20575;-74
2023/10/24 00:58:37;;;;;;;19.70;9.55;;;;;;;;;;5091559;28;20099;-74
2023/10/24 01:01:05;;;;;;;17.88;8.63;;;;;;;;;;5091248;28;20025;-74
2023/10/24 01:03:31;;;;;;;23.25;9.48;;;;;;;;;;5094526;28;20058;-73
2023/10/24 01:05:58;;;;;;;16.20;8.95;;;;;;;;;;5093184;28;20086;-73
2023/10/24 01:08:24;;;;;;;17.75;8.70;;;;;;;;;;5092303;28;20057;-74
2023/10/24 01:10:50;;;;;;;12.55;8.25;;;;;;;;;;5091658;28;20028;-74
2023/10/24 01:13:16;;;;;;;15.15;8.57;;;;;;;;;;5091608;28;20039;-74
2023/10/24 01:15:42;;;;;;;18.08;8.82;;;;;;;;;;5091466;28;20024;-72
2023/10/24 01:18:08;;;;;;;14.38;8.13;;;;;;;;;;5091588;28;20016;-73
2023/10/24 01:20:39;;;;;;;16.00;9.10;;;;;;;;;;5091385;28;20024;-73
2023/10/24 01:23:05;;;;;;;23.05;9.70;;;;;;;;;;5095292;28;20061;-73
2023/10/24 01:25:31;;;;;;;14.95;8.60;;;;;;;;;;5095176;28;20020;-73
2023/10/24 01:27:58;;;;;;;18.85;7.93;;;;;;;;;;5095074;28;20127;-72
2023/10/24 01:30:24;;;;;;;21.02;9.45;;;;;;;;;;5094746;28;20039;-72
2023/10/24 01:32:50;;;;;;;14.65;8.90;;;;;;;;;;5094920;28;20487;-72
2023/10/24 01:35:16;;;;;;;15.65;8.60;;;;;;;;;;5097799;28;20024;-73
2023/10/24 01:37:41;;;;;;;16.60;8.80;;;;;;;;;;5099467;28;20114;-74
2023/10/24 01:40:08;;;;;;;14.77;8.68;;;;;;;;;;5096616;28;20194;-74
2023/10/24 01:42:34;;;;;;;15.15;9.75;;;;;;;;;;5094819;28;20490;-73
2023/10/24 01:45:00;;;;;;;21.05;9.38;;;;;;;;;;5098817;28;20040;-73
2023/10/24 01:47:26;;;;;;;19.23;9.43;;;;;;;;;;5101697;28;20024;-74
2023/10/24 01:49:52;;;;;;;14.45;9.48;;;;;;;;;;5098445;28;20024;-74
2023/10/24 01:52:18;;;;;;;17.90;9.38;;;;;;;;;;5094695;28;20024;-73
2023/10/24 01:54:44;;;;;;;17.95;9.63;;;;;;;;;;5096474;28;20360;-73
2023/10/24 01:57:10;;;;;;;17.38;10.05;;;;;;;;;;5094278;28;20021;-73
2023/10/24 01:59:36;;;;;;;19.75;10.25;;;;;;;;;;5094780;28;20383;-73
2023/10/24 02:02:02;;;;;;;19.10;9.88;;;;;;;;;;5094221;28;20046;-73
2023/10/24 02:04:28;;;;;;;23.40;10.13;;;;;;;;;;5094533;28;20028;-75
2023/10/24 02:06:54;;;;;;;22.08;9.70;;;;;;;;;;5094470;28;20077;-73
2023/10/24 02:09:20;;;;;;;23.88;10.52;;;;;;;;;;5094332;28;20100;-73
2023/10/24 02:11:46;;;;;;;16.60;9.73;;;;;;;;;;5093647;28;20388;-72
2023/10/24 02:14:12;;;;;;;16.67;10.25;;;;;;;;;;5094016;28;20033;-73
2023/10/24 02:16:38;;;;;;;20.17;10.40;;;;;;;;;;5093908;28;20479;-72
2023/10/24 02:19:05;;;;;;;21.85;10.70;;;;;;;;;;5093914;28;20042;-73
2023/10/24 02:21:30;;;;;;;15.02;10.05;;;;;;;;;;5093683;28;20031;-73
2023/10/24 02:23:57;;;;;;;16.33;9.68;;;;;;;;;;5093975;28;20511;-73
2023/10/24 02:26:23;;;;;;;18.75;11.00;;;;;;;;;;5092625;28;20028;-73
2023/10/24 02:28:49;;;;;;;19.98;11.32;;;;;;;;;;5093785;28;20027;-73
2023/10/24 02:31:15;;;;;;;20.40;10.88;;;;;;;;;;5093247;28;20046;-73
2023/10/24 02:33:41;;;;;;;20.50;11.70;;;;;;;;;;5095177;28;20028;-73
2023/10/24 02:36:08;;;;;;;23.17;11.18;;;;;;;;;;5099216;28;20039;-74
2023/10/24 02:38:34;;;;;;;21.55;11.95;;;;;;;;;;5096011;28;20053;-72
2023/10/24 02:41:00;;;;;;;15.55;11.50;;;;;;;;;;5098315;28;20043;-73
2023/10/24 02:43:26;;;;;;;20.77;11.05;;;;;;;;;;5104054;28;20020;-73
2023/10/24 02:45:53;;;;;;;17.08;10.93;;;;;;;;;;5104994;28;20055;-73
2023/10/24 02:48:19;;;;;;;21.13;11.20;;;;;;;;;;5119166;28;20008;-74
2023/10/24 02:50:45;;;;;;;21.10;10.63;;;;;;;;;;5119015;28;20023;-73
2023/10/24 02:53:11;;;;;;;18.80;11.93;;;;;;;;;;5119144;28;20015;-73
2023/10/24 02:55:37;;;;;;;19.10;10.95;;;;;;;;;;5118567;28;20024;-74
2023/10/24 02:58:03;;;;;;;16.48;10.52;;;;;;;;;;5109563;28;20024;-73
2023/10/24 03:00:29;;;;;;;28.13;11.18;;;;;;;;;;5104202;28;20036;-74
2023/10/24 03:02:55;;;;;;;19.92;10.63;;;;;;;;;;5102642;28;20024;-73
2023/10/24 03:05:21;;;;;;;18.20;10.95;;;;;;;;;;5095324;28;20024;-73
2023/10/24 03:07:47;;;;;;;16.40;10.82;;;;;;;;;;5098057;28;20035;-73
2023/10/24 03:10:13;;;;;;;20.27;10.70;;;;;;;;;;5101744;28;20031;-73
2023/10/24 03:12:39;;;;;;;18.70;10.73;;;;;;;;;;5093306;28;20460;-73
2023/10/24 03:15:05;;;;;;;20.38;10.70;;;;;;;;;;5092852;28;20028;-73
2023/10/24 03:17:31;;;;;;;17.38;11.20;;;;;;;;;;5093993;28;20055;-73
2023/10/24 03:19:57;;;;;;;17.83;10.98;;;;;;;;;;5093789;28;20025;-73
2023/10/24 03:22:23;;;;;;;18.77;11.13;;;;;;;;;;5095067;28;20024;-73
2023/10/24 03:24:50;;;;;;;18.73;11.07;;;;;;;;;;5094301;28;20027;-75
2023/10/24 03:27:17;;;;;;;16.75;10.18;;;;;;;;;;5094453;28;20035;-74
2023/10/24 03:29:43;;;;;;;18.95;10.63;;;;;;;;;;5093883;28;20495;-73
2023/10/24 03:32:09;;;;;;;21.92;11.05;;;;;;;;;;5093601;28;20536;-74
2023/10/24 03:34:36;;;;;;;21.95;11.38;;;;;;;;;;5092539;28;20021;-73
2023/10/24 03:37:02;;;;;;;20.05;10.75;;;;;;;;;;5092382;28;20051;-73
2023/10/24 03:39:28;;;;;;;23.90;11.57;;;;;;;;;;5092637;28;20038;-72
2023/10/24 03:41:54;;;;;;;22.60;11.73;;;;;;;;;;5092055;28;20055;-73
2023/10/24 03:44:22;;;;;;;21.00;10.57;;;;;;;;;;5090462;28;20044;-73
2023/10/24 03:46:48;;;;;;;24.63;11.10;;;;;;;;;;5091070;28;20038;-76
2023/10/24 03:49:14;;;;;;;16.98;11.27;;;;;;;;;;5092480;28;20025;-74
2023/10/24 03:51:40;;;;;;;20.05;11.05;;;;;;;;;;5092144;28;20020;-73
2023/10/24 03:54:06;;;;;;;25.15;12.23;;;;;;;;;;5093876;28;20060;-74
2023/10/24 03:56:33;;;;;;;18.98;11.18;;;;;;;;;;5095851;28;20020;-74
2023/10/24 03:58:59;;;;;;;23.00;12.63;;;;;;;;;;5093183;28;20051;-73
2023/10/24 04:01:25;;;;;;;25.90;12.73;;;;;;;;;;5092718;28;20020;-74
2023/10/24 04:03:52;;;;;;;23.90;12.48;;;;;;;;;;5094963;28;20459;-73
2023/10/24 04:06:18;;;;;;;18.02;11.93;;;;;;;;;;5093854;28;20467;-74
2023/10/24 04:08:44;;;;;;;21.50;12.38;;;;;;;;;;5093890;28;20115;-72
2023/10/24 04:11:14;;;;;;;21.27;11.98;;;;;;;;;;5093476;28;20028;-72
2023/10/24 04:13:40;;;;;;;22.38;12.68;;;;;;;;;;5094018;28;20146;-73
2023/10/24 04:16:06;;;;;;;21.65;12.77;;;;;;;;;;5092597;28;20024;-73
2023/10/24 04:18:32;;;;;;;30.40;13.02;;;;;;;;;;5091966;28;20372;-74
2023/10/24 04:20:58;;;;;;;19.85;13.00;;;;;;;;;;5091748;28;20032;-73
2023/10/24 04:23:24;;;;;;;27.90;13.65;;;;;;;;;;5091977;28;20020;-72
2023/10/24 04:25:50;;;;;;;25.20;13.93;;;;;;;;;;5091762;28;20437;-73
2023/10/24 04:28:16;;;;;;;21.05;13.60;;;;;;;;;;5091932;28;20028;-74
2023/10/24 04:30:42;;;;;;;28.60;13.55;;;;;;;;;;5091516;28;20050;-73
2023/10/24 04:33:09;;;;;;;24.75;13.98;;;;;;;;;;5091667;28;20024;-74
2023/10/24 04:35:47;;;;;;;27.30;13.20;;;;;;;;;;5091931;28;20103;-74
2023/10/24 04:38:13;;;;;;;25.63;13.45;;;;;;;;;;5091810;28;20028;-74
2023/10/24 04:40:39;;;;;;;26.55;13.75;;;;;;;;;;5091544;28;20020;-74
2023/10/24 04:43:06;;;;;;;28.15;13.55;;;;;;;;;;5091760;28;20064;-74
2023/10/24 04:45:32;;;;;;;25.98;15.00;;;;;;;;;;5091528;28;20019;-73
2023/10/24 04:47:59;;;;;;;26.13;13.65;;;;;;;;;;5091389;28;20024;-73
2023/10/24 04:50:25;;;;;;;22.75;14.40;;;;;;;;;;5091268;28;20043;-75
2023/10/24 04:52:52;;;;;;;24.35;13.85;;;;;;;;;;5091825;28;20016;-74
2023/10/24 04:55:18;;;;;;;24.40;14.02;;;;;;;;;;5092771;28;20599;-75
2023/10/24 04:57:44;;;;;;;26.17;14.30;;;;;;;;;;5094501;28;20031;-73
2023/10/24 05:00:16;;;;;;;25.55;14.23;;;;;;;;;;5096831;28;20073;-75
2023/10/24 05:02:45;;;;;;;26.45;14.10;;;;;;;;;;5100254;28;20066;-74
2023/10/24 05:05:11;;;;;;;29.42;14.65;;;;;;;;;;5099063;28;20024;-73
2023/10/24 05:07:37;;;;;;;30.23;15.20;;;;;;;;;;5095011;28;20031;-72
2023/10/24 05:10:04;;;;;;;26.88;14.52;;;;;;;;;;5094959;28;20030;-74
2023/10/24 05:12:30;;;;;;;24.98;15.05;;;;;;;;;;5094900;28;20025;-75
2023/10/24 05:14:57;;;;;;;30.67;16.05;;;;;;;;;;5099605;28;20047;-74
2023/10/24 05:17:23;;;;;;;27.38;14.70;;;;;;;;;;5094236;28;20021;-75
2023/10/24 05:19:49;;;;;;;29.40;14.65;;;;;;;;;;5094820;28;20077;-75
2023/10/24 05:22:15;;;;;;;31.60;15.00;;;;;;;;;;5094300;28;20027;-73
2023/10/24 05:24:41;;;;;;;28.35;15.27;;;;;;;;;;5094767;28;20032;-73
2023/10/24 05:27:07;;;;;;;25.63;14.35;;;;;;;;;;5094778;28;20027;-74
2023/10/24 05:29:36;;;;;;;27.42;15.70;;;;;;;;;;5094843;28;20471;-74
2023/10/24 05:32:02;;;;;;;26.23;15.20;;;;;;;;;;5094292;28;20107;-74
2023/10/24 05:34:28;;;;;;;27.95;14.95;;;;;;;;;;5094601;28;20111;-74
2023/10/24 05:36:54;;;;;;;27.58;16.33;;;;;;;;;;5094256;28;20031;-73
2023/10/24 05:39:21;;;;;;;24.95;15.00;;;;;;;;;;5095773;28;20031;-73
2023/10/24 05:41:48;;;;;;;28.25;15.65;;;;;;;;;;5099045;28;20471;-74
2023/10/24 05:44:14;;;;;;;23.67;14.18;;;;;;;;;;5094241;28;20471;-73
2023/10/24 05:46:40;;;;;;;25.02;14.82;;;;;;;;;;5094703;28;20379;-74
2023/10/24 05:49:06;;;;;;;28.88;14.90;;;;;;;;;;5094551;28;20399;-73
2023/10/24 05:51:33;;;;;;;27.83;15.13;;;;;;;;;;5094070;28;20020;-74
2023/10/24 05:53:59;;;;;;;24.85;14.75;;;;;;;;;;5094208;28;20248;-73
2023/10/24 05:56:25;;;;;;;31.25;15.38;;;;;;;;;;5094010;28;20032;-73
2023/10/24 05:58:51;;;;;;;27.92;14.40;;;;;;;;;;5094342;28;20542;-74
2023/10/24 06:01:17;;;;;;;26.60;15.23;;;;;;;;;;5094379;28;20053;-76
2023/10/24 06:03:43;;;;;;;28.88;15.00;;;;;;;;;;5098203;28;20024;-74
2023/10/24 06:06:09;;;;;;;28.70;15.10;;;;;;;;;;5076337;28;20036;-73
2023/10/24 06:08:36;;;;;;;30.15;15.70;;;;;;;;;;5093389;28;20095;-73
2023/10/24 06:11:03;;;;;;;31.77;14.75;;;;;;;;;;5094019;28;20112;-74
2023/10/24 06:13:30;;;;;;;22.70;14.57;;;;;;;;;;5093991;28;20035;-73
2023/10/24 06:15:56;;;;;;;27.20;15.07;;;;;;;;;;5094767;28;20085;-75
2023/10/24 06:18:22;;;;;;;30.52;15.63;;;;;;;;;;5078978;28;20024;-74
2023/10/24 06:20:48;;;;;;;26.48;15.55;;;;;;;;;;5093644;28;20394;-75
2023/10/24 06:23:14;;;;;;;26.27;14.25;;;;;;;;;;5093245;28;20489;-74
2023/10/24 06:25:41;;;;;;;26.48;14.43;;;;;;;;;;5094122;28;20107;-73
2023/10/24 06:28:08;;;;;;;29.35;16.50;;;;;;;;;;5093280;28;20030;-74
2023/10/24 06:30:34;;;;;;;24.80;14.55;;;;;;;;;;5093075;28;20024;-73
2023/10/24 06:33:00;;;;;;;30.85;15.20;;;;;;;;;;5093071;28;20028;-72
2023/10/24 06:35:26;;;;;;;25.27;13.63;;;;;;;;;;5093256;28;20063;-73
2023/10/24 06:37:52;;;;;;;28.23;13.93;;;;;;;;;;5092858;28;20059;-74
2023/10/24 06:40:18;;;;;;;29.75;14.93;;;;;;;;;;5101084;28;20024;-73
2023/10/24 06:42:45;;;;;;;25.35;14.25;;;;;;;;;;5093387;28;20061;-74
2023/10/24 06:45:11;;;;;;;28.27;15.60;;;;;;;;;;5096249;28;20039;-74
2023/10/24 06:47:38;;;;;;;24.95;14.65;;;;;;;;;;5095652;28;20020;-74
2023/10/24 06:50:05;;;;;;;25.52;15.40;;;;;;;;;;5093005;28;20031;-75
2023/10/24 06:52:31;;;;;;;28.08;15.40;;;;;;;;;;5092903;28;20107;-74
2023/10/24 06:54:58;;;;;;;30.20;15.27;;;;;;;;;;5093081;28;20032;-74
2023/10/24 06:57:24;;;;;;;35.53;15.23;;;;;;;;;;5092704;28;20419;-73
2023/10/24 06:59:50;;;;;;;33.60;15.23;;;;;;;;;;5092591;28;20020;-75
2023/10/24 07:02:17;;;;;;;36.67;14.57;;;;;;;;;;5090864;28;20051;-72
2023/10/24 07:04:43;;;;;;;35.42;15.85;;;;;;;;;;5092633;28;20028;-72
2023/10/24 07:07:09;;;;;;;31.60;15.23;;;;;;;;;;5092379;28;20035;-73
2023/10/24 07:09:35;;;;;;;29.15;14.38;;;;;;;;;;5091000;28;20565;-73
2023/10/24 07:12:01;;;;;;;31.85;14.48;;;;;;;;;;5092298;28;20107;-73
2023/10/24 07:14:27;;;;;;;27.17;14.90;;;;;;;;;;5093126;28;20475;-73
2023/10/24 07:16:53;;;;;;;29.33;15.93;;;;;;;;;;5093278;28;20432;-74
2023/10/24 07:19:20;;;;;;;26.73;15.35;;;;;;;;;;5096655;28;20028;-74
2023/10/24 07:21:46;;;;;;;30.35;15.10;;;;;;;;;;5096039;28;20337;-74
2023/10/24 07:24:13;;;;;;;29.17;15.25;;;;;;;;;;5097388;28;20025;-73
2023/10/24 07:26:39;;;;;;;29.35;15.68;;;;;;;;;;5103125;28;20028;-74
2023/10/24 07:29:05;;;;;;;26.75;16.20;;;;;;;;;;5103376;28;20050;-73
2023/10/24 07:31:31;;;;;;;29.17;15.27;;;;;;;;;;5100824;28;20476;-74
2023/10/24 07:33:59;;;;;;;28.27;16.35;;;;;;;;;;5113277;28;20019;-74
2023/10/24 07:36:30;;;;;;;28.00;15.85;;;;;;;;;;5102913;28;20028;-74
2023/10/24 07:38:56;;;;;;;27.05;16.35;;;;;;;;;;5115793;28;20046;-72
2023/10/24 07:41:22;;;;;;;30.17;16.83;;;;;;;;;;5107170;28;20047;-72
2023/10/24 07:43:48;;;;;;;30.17;17.25;;;;;;;;;;5100008;28;20032;-73
2023/10/24 07:46:14;;;;;;;29.95;16.05;;;;;;;;;;5115228;28;20036;-73
2023/10/24 07:48:40;;;;;;;32.15;17.08;;;;;;;;;;5100049;28;20571;-73
2023/10/24 07:51:10;;;;;;;29.00;16.10;;;;;;;;;;5094805;28;20098;-74
2023/10/24 07:53:37;;;;;;;41.97;19.77;;;;;;;;;;5095964;28;20491;-75
2023/10/24 07:56:06;;;;;;;30.98;17.75;;;;;;;;;;5090674;28;20028;-75
2023/10/24 07:58:32;;;;;;;30.85;16.70;;;;;;;;;;5092439;28;20047;-74
2023/10/24 08:00:58;;;;;;;33.95;17.13;;;;;;;;;;5091891;28;20388;-73
2023/10/24 08:03:24;;;;;;;28.23;16.05;;;;;;;;;;5091695;28;20016;-73
2023/10/24 08:05:51;;;;;;;40.03;16.58;;;;;;;;;;5091953;28;20471;-74
2023/10/24 08:08:17;;;;;;;32.67;17.35;;;;;;;;;;5091942;28;20107;-73
2023/10/24 08:10:43;;;;;;;29.83;16.10;;;;;;;;;;5091582;28;20052;-74
2023/10/24 08:13:09;;;;;;;34.40;16.27;;;;;;;;;;5091988;28;20467;-75
2023/10/24 08:15:35;;;;;;;29.17;15.13;;;;;;;;;;5091574;28;20053;-73
2023/10/24 08:18:01;;;;;;;26.23;16.27;;;;;;;;;;5091500;28;20475;-73
2023/10/24 08:20:27;;;;;;;26.77;15.90;;;;;;;;;;5093316;28;20024;-73
2023/10/24 08:22:53;;;;;;;29.25;16.55;;;;;;;;;;5094945;28;20020;-77
2023/10/24 08:25:19;;;;;;;29.13;16.25;;;;;;;;;;5094978;28;20034;-73
2023/10/24 08:27:45;;;;;;;31.30;17.17;;;;;;;;;;5093392;28;20453;-73
2023/10/24 08:30:11;;;;;;;27.40;16.77;;;;;;;;;;5094031;28;20024;-76
2023/10/24 08:32:37;;;;;;;31.30;16.95;;;;;;;;;;5099628;28;20020;-72
2023/10/24 08:35:04;;;;;;;28.63;16.85;;;;;;;;;;5098112;28;20024;-74
2023/10/24 08:37:30;;;;;;;27.05;15.77;;;;;;;;;;5098364;28;20103;-76
2023/10/24 08:39:56;;;;;;;31.25;16.42;;;;;;;;;;5095495;28;20510;-74
2023/10/24 08:42:22;;;;;;;29.33;15.90;;;;;;;;;;5095201;28;20032;-73
2023/10/24 08:44:49;;;;;;;25.05;16.15;;;;;;;;;;5095308;28;20028;-73
2023/10/24 08:47:15;;;;;;;30.30;16.20;;;;;;;;;;5095190;28;20031;-74
2023/10/24 08:49:41;;;;;;;26.83;16.13;;;;;;;;;;5095333;28;20031;-76
2023/10/24 08:52:07;;;;;;;31.67;16.38;;;;;;;;;;5096580;28;20036;-74
2023/10/24 08:54:33;;;;;;;33.78;16.90;;;;;;;;;;5084044;28;20101;-74
2023/10/24 08:57:01;;;;;;;33.63;16.83;;;;;;;;;;5099438;28;20085;-75
2023/10/24 08:59:29;;;;;;;43.67;17.17;;;;;;;;;;5096232;28;20042;-73
2023/10/24 09:01:55;;;;;;;34.42;17.27;;;;;;;;;;5097604;28;20467;-75
2023/10/24 09:04:22;;;;;;;28.45;17.08;;;;;;;;;;5098197;28;20103;-73
2023/10/24 09:06:48;;;;;;;26.55;15.73;;;;;;;;;;5097611;28;20038;-74
2023/10/24 09:09:15;;;;;;;27.13;16.75;;;;;;;;;;5095069;28;20103;-74
2023/10/24 09:11:58;;;;;;;28.48;17.17;;;;;;;;;;5094705;28;20520;-77
2023/10/24 09:14:24;;;;;;;30.27;17.23;;;;;;;;;;5095313;28;20070;-73
2023/10/24 09:16:56;;;;;;;29.15;16.50;;;;;;;;;;5095884;28;20139;-72
2023/10/24 09:19:22;;;;;;;28.65;16.92;;;;;;;;;;5098452;28;20020;-73
2023/10/24 09:21:50;;;;;;;34.17;16.92;;;;;;;;;;5097182;28;20056;-75
2023/10/24 09:24:17;;;;;;;29.55;17.23;;;;;;;;;;5098826;28;20378;-74
2023/10/24 09:26:50;;;;;;;35.08;17.08;;;;;;;;;;5094499;28;20126;-74
2023/10/24 09:29:17;;;;;;;31.63;17.83;;;;;;;;;;5097263;28;20051;-74
2023/10/24 09:31:44;;;;;;;27.30;16.55;;;;;;;;;;5097136;28;20020;-73
2023/10/24 09:34:10;;;;;;;32.25;19.27;;;;;;;;;;5099552;28;20130;-73
2023/10/24 09:36:36;;;;;;;28.70;18.08;;;;;;;;;;5102744;28;20137;-73
2023/10/24 09:39:03;;;;;;;28.35;18.00;;;;;;;;;;5102952;28;20024;-73
2023/10/24 09:41:30;;;;;;;27.45;18.38;;;;;;;;;;5109429;28;20065;-73
2023/10/24 09:44:00;;;;;;;27.42;17.58;;;;;;;;;;5096535;28;20046;-73
2023/10/24 09:46:27;;;;;;;34.25;18.20;;;;;;;;;;5095456;28;20024;-74
2023/10/24 09:48:55;;;;;;;30.05;18.42;;;;;;;;;;5094072;28;20031;-72
2023/10/24 09:51:22;;;;;;;28.02;16.83;;;;;;;;;;5093706;28;20493;-73
2023/10/24 09:53:48;;;;;;;33.25;19.08;;;;;;;;;;5094536;28;20467;-73
2023/10/24 09:56:15;;;;;;;32.28;19.00;;;;;;;;;;5094176;28;20051;-72
2023/10/24 09:58:42;;;;;;;37.13;20.38;;;;;;;;;;5096234;28;20020;-73
2023/10/24 10:01:10;;;;;;;36.03;18.45;;;;;;;;;;5096528;28;20020;-73
2023/10/24 10:03:37;;;;;;;31.73;19.00;;;;;;;;;;5097234;28;20024;-72
2023/10/24 10:06:05;;;;;;;55.63;37.47;;;;;;;;;;5096006;28;20038;-73
2023/10/24 10:08:33;;;;;;;30.85;21.50;;;;;;;;;;5096730;28;20027;-74
2023/10/24 10:11:00;;;;;;;35.97;20.17;;;;;;;;;;5093644;28;20078;-74
2023/10/24 10:13:30;;;;;;;34.03;21.42;;;;;;;;;;5093823;28;20028;-74
2023/10/24 10:16:02;;;;;;;30.30;20.90;;;;;;;;;;5093898;28;20111;-73
2023/10/24 10:18:46;;;;;;;35.53;21.45;;;;;;;;;;5093673;28;20536;-73
2023/10/24 10:21:32;;;;;;;36.20;20.30;;;;;;;;;;5093510;28;20020;-74
2023/10/24 10:24:10;;;;;;;36.05;21.05;;;;;;;;;;5084635;28;20056;-72
2023/10/24 10:26:57;;;;;;;35.95;21.40;;;;;;;;;;5093487;28;20031;-72
2023/10/24 10:29:23;;;;;;;33.13;21.30;;;;;;;;;;5093374;28;20050;-72
2023/10/24 10:32:07;;;;;;;32.63;20.63;;;;;;;;;;5093040;28;20032;-74
2023/10/24 10:34:34;;;;;;;34.10;21.20;;;;;;;;;;5094246;28;20051;-74
2023/10/24 10:37:00;;;;;;;46.40;27.23;;;;;;;;;;5094615;28;20032;-76
2023/10/24 10:39:26;;;;;;;37.47;22.40;;;;;;;;;;5094528;28;20085;-73
2023/10/24 10:41:53;;;;;;;31.67;22.52;;;;;;;;;;5094980;28;20027;-74
2023/10/24 10:44:37;;;;;;;43.30;22.08;;;;;;;;;;5098044;28;20118;-72
2023/10/24 10:47:04;;;;;;;32.63;21.23;;;;;;;;;;5093584;28;20023;-74
2023/10/24 10:49:39;;;;;;;35.53;20.98;;;;;;;;;;5094746;28;20113;-74
2023/10/24 10:52:09;;;;;;;36.92;20.17;;;;;;;;;;5095377;28;20027;-73
2023/10/24 10:54:43;;;;;;;29.92;20.13;;;;;;;;;;5098623;28;20024;-74
2023/10/24 10:57:10;;;;;;;31.38;20.27;;;;;;;;;;5096300;28;20028;-74
2023/10/24 10:59:41;;;;;;;30.13;19.88;;;;;;;;;;5093809;28;20022;-76
2023/10/24 11:02:10;;;;;;;35.63;18.95;;;;;;;;;;5091280;28;20030;-73
2023/10/24 11:04:36;;;;;;;32.28;19.52;;;;;;;;;;5092779;28;20023;-75
2023/10/24 11:07:03;;;;;;;40.30;19.08;;;;;;;;;;5092782;28;20027;-74
2023/10/24 11:09:37;;;;;;;27.52;18.65;;;;;;;;;;5091406;28;20035;-74
2023/10/24 11:12:21;;;;;;;33.15;18.23;;;;;;;;;;5092390;28;20449;-75
2023/10/24 11:15:06;;;;;;;36.42;17.90;;;;;;;;;;5093990;28;20032;-76
2023/10/24 11:17:32;;;;;;;;;;;;;;;;;;5092897;28;20020;-73
2023/10/24 11:19:59;;;;;;;28.20;17.52;;;;;;;;;;5092836;28;19911;-76
2023/10/24 11:22:25;;;;;;;26.45;16.83;;;;;;;;;;5093740;28;20024;-73
2023/10/24 11:24:51;;;;;;;35.15;18.45;;;;;;;;;;5092476;28;20046;-72
2023/10/24 11:27:17;;;;;;;33.30;17.70;;;;;;;;;;5092285;28;20383;-75
2023/10/24 11:29:43;;;;;;;30.75;17.83;;;;;;;;;;5092904;28;20483;-74
2023/10/24 11:32:09;;;;;;;27.10;18.25;;;;;;;;;;5093677;28;20028;-74
2023/10/24 11:34:36;;;;;;;32.45;17.67;;;;;;;;;;5092067;28;20024;-74
2023/10/24 11:37:02;;;;;;;27.33;17.90;;;;;;;;;;5092151;28;20020;-72
2023/10/24 11:39:30;;;;;;;32.30;17.55;;;;;;;;;;5092069;28;20027;-75
2023/10/24 11:41:56;;;;;;;34.22;17.35;;;;;;;;;;5091804;28;20012;-75
2023/10/24 11:44:22;;;;;;;31.77;17.85;;;;;;;;;;5092591;28;20498;-74
2023/10/24 11:46:48;;;;;;;36.67;18.30;;;;;;;;;;5092460;28;20031;-76
2023/10/24 11:49:14;;;;;;;29.52;17.42;;;;;;;;;;5093354;28;20032;-74
2023/10/24 11:51:48;;;;;;;33.53;17.00;;;;;;;;;;5093700;28;20093;-75
2023/10/24 11:54:14;;;;;;;33.25;16.80;;;;;;;;;;5093184;28;20040;-73
2023/10/24 11:56:40;;;;;;;31.55;18.52;;;;;;;;;;5090683;28;20123;-74
2023/10/24 11:59:06;;;;;;;25.38;16.00;;;;;;;;;;5092049;28;20027;-74
2023/10/24 12:01:33;;;;;;;25.27;15.80;;;;;;;;;;5091682;28;20024;-73
2023/10/24 12:04:00;;;;;;;28.35;15.18;;;;;;;;;;5091874;28;20013;-73
2023/10/24 12:06:26;;;;;;;24.75;15.02;;;;;;;;;;5091337;28;20534;-74
2023/10/24 12:08:53;;;;;;;21.77;13.82;;;;;;;;;;5091896;28;20032;-74
2023/10/24 12:11:19;;;;;;;26.05;14.18;;;;;;;;;;5091654;28;20021;-75
2023/10/24 12:13:46;;;;;;;33.88;15.35;;;;;;;;;;5092522;28;20024;-74
2023/10/24 12:16:11;;;;;;;28.30;15.07;;;;;;;;;;5091702;28;20107;-74
2023/10/24 12:18:38;;;;;;;30.80;14.50;;;;;;;;;;5091649;28;20503;-74
2023/10/24 12:21:04;;;;;;;35.83;14.63;;;;;;;;;;5091572;28;20048;-75
2023/10/24 12:23:30;;;;;;;29.35;14.50;;;;;;;;;;5091807;28;20024;-73
2023/10/24 12:25:56;;;;;;;30.15;15.10;;;;;;;;;;5091745;28;20020;-73
2023/10/24 12:28:22;;;;;;;23.10;14.40;;;;;;;;;;5091868;28;20030;-73
2023/10/24 12:30:48;;;;;;;25.05;14.40;;;;;;;;;;5091532;28;20035;-74
2023/10/24 12:33:14;;;;;;;23.38;13.55;;;;;;;;;;5093780;28;20044;-74
2023/10/24 12:35:40;;;;;;;22.70;12.82;;;;;;;;;;5092656;28;20036;-73
2023/10/24 12:38:07;;;;;;;21.92;13.80;;;;;;;;;;5095454;28;20107;-74
2023/10/24 12:40:32;;;;;;;23.63;14.18;;;;;;;;;;5091477;28;20039;-74
2023/10/24 12:42:58;;;;;;;49.13;29.30;;;;;;;;;;5091633;28;20526;-73
2023/10/24 12:45:24;;;;;;;27.90;15.00;;;;;;;;;;5091632;28;20024;-74
2023/10/24 12:47:53;;;;;;;25.52;14.18;;;;;;;;;;5092420;28;20538;-74
2023/10/24 12:50:19;;;;;;;21.60;13.15;;;;;;;;;;5092673;28;20024;-74
2023/10/24 12:52:45;;;;;;;28.63;14.30;;;;;;;;;;5093976;28;20024;-74
2023/10/24 12:55:11;;;;;;;30.15;14.52;;;;;;;;;;5096160;28;20506;-73
2023/10/24 12:57:37;;;;;;;21.33;13.73;;;;;;;;;;5104257;28;20388;-73
2023/10/24 13:00:04;;;;;;;27.63;13.82;;;;;;;;;;5097138;28;20023;-73
2023/10/24 13:02:30;;;;;;;23.55;12.63;;;;;;;;;;5093986;28;20020;-75
2023/10/24 13:04:56;;;;;;;22.35;13.00;;;;;;;;;;5093744;28;20024;-73
2023/10/24 13:07:22;;;;;;;29.60;13.30;;;;;;;;;;5092307;28;20028;-73
2023/10/24 13:09:48;;;;;;;34.58;14.18;;;;;;;;;;5091488;28;20084;-79
2023/10/24 13:12:14;;;;;;;24.13;12.80;;;;;;;;;;5091233;28;20032;-73
2023/10/24 13:14:40;;;;;;;23.80;13.32;;;;;;;;;;5091589;28;20028;-74
2023/10/24 13:17:06;;;;;;;25.38;13.82;;;;;;;;;;5093039;28;20084;-73
2023/10/24 13:19:32;;;;;;;25.58;13.82;;;;;;;;;;5094821;28;20043;-73
2023/10/24 13:21:58;;;;;;;23.95;12.63;;;;;;;;;;5095114;28;20502;-74
2023/10/24 13:24:24;;;;;;;45.78;19.98;;;;;;;;;;5094729;28;20433;-75
2023/10/24 13:26:51;;;;;;;25.73;13.57;;;;;;;;;;5094539;28;20028;-72
2023/10/24 13:29:20;;;;;;;23.23;11.90;;;;;;;;;;5094911;28;20032;-72
2023/10/24 13:31:47;;;;;;;26.50;12.45;;;;;;;;;;5094741;28;20390;-74
2023/10/24 13:34:13;;;;;;;19.75;11.32;;;;;;;;;;5094554;28;20045;-75
2023/10/24 13:36:39;;;;;;;21.92;12.43;;;;;;;;;;5095013;28;20352;-74
2023/10/24 13:39:06;;;;;;;29.00;12.60;;;;;;;;;;5094507;28;20020;-73
2023/10/24 13:41:32;;;;;;;21.45;11.10;;;;;;;;;;5098283;28;20055;-74
2023/10/24 13:43:58;;;;;;;28.08;12.13;;;;;;;;;;5094670;28;20052;-75
2023/10/24 13:46:24;;;;;;;24.63;11.52;;;;;;;;;;5094757;28;20546;-74
2023/10/24 13:48:50;;;;;;;27.65;12.18;;;;;;;;;;5094454;28;20115;-76
2023/10/24 13:51:16;;;;;;;22.98;11.57;;;;;;;;;;5094199;28;20462;-74
2023/10/24 13:53:42;;;;;;;24.52;10.98;;;;;;;;;;5094641;28;20440;-75
2023/10/24 13:56:08;;;;;;;24.13;10.77;;;;;;;;;;5095266;28;20107;-74
2023/10/24 13:58:34;;;;;;;24.88;12.27;;;;;;;;;;5093066;28;20499;-73
2023/10/24 14:01:00;;;;;;;23.92;13.13;;;;;;;;;;5094412;28;20032;-76
2023/10/24 14:03:26;;;;;;;26.77;11.93;;;;;;;;;;5093047;28;20031;-74
2023/10/24 14:05:52;;;;;;;22.10;10.93;;;;;;;;;;5094393;28;20020;-73
2023/10/24 14:08:19;;;;;;;29.08;11.35;;;;;;;;;;5095247;28;20020;-75
2023/10/24 14:10:45;;;;;;;20.08;10.43;;;;;;;;;;5094816;28;20039;-72
2023/10/24 14:13:10;;;;;;;17.58;10.43;;;;;;;;;;5093802;28;20021;-73
2023/10/24 14:15:37;;;;;;;26.52;9.95;;;;;;;;;;5093495;28;20081;-74